sensor_id;sensor_type;location;lat;lon;timestamp;temperature;humidity
51383;DHT22;37475;43.358;1.248;2023-07-09T00:00:51;23.40;74.20
51383;DHT22;37475;43.358;1.248;2023-07-09T00:03:18;23.30;74.30
51383;DHT22;37475;43.358;1.248;2023-07-09T00:05:47;23.40;73.80
51383;DHT22;37475;43.358;1.248;2023-07-09T00:08:30;23.40;74.00
51383;DHT22;37475;43.358;1.248;2023-07-09T00:10:57;23.40;74.00
51383;DHT22;37475;43.358;1.248;2023-07-09T00:13:25;23.40;74.00
51383;DHT22;37475;43.358;1.248;2023-07-09T00:15:53;23.50;74.00
51383;DHT22;37475;43.358;1.248;2023-07-09T00:18:20;23.40;74.60
51383;DHT22;37475;43.358;1.248;2023-07-09T00:20:46;23.50;74.70
51383;DHT22;37475;43.358;1.248;2023-07-09T00:23:14;23.50;74.80
51383;DHT22;37475;43.358;1.248;2023-07-09T00:25:40;23.50;74.60
51383;DHT22;37475;43.358;1.248;2023-07-09T00:28:19;23.50;74.50
51383;DHT22;37475;43.358;1.248;2023-07-09T00:30:46;23.50;74.20
51383;DHT22;37475;43.358;1.248;2023-07-09T00:33:16;23.50;74.00
51383;DHT22;37475;43.358;1.248;2023-07-09T00:35:45;23.50;74.30
51383;DHT22;37475;43.358;1.248;2023-07-09T00:38:23;23.30;75.00
51383;DHT22;37475;43.358;1.248;2023-07-09T00:43:24;23.20;75.20
51383;DHT22;37475;43.358;1.248;2023-07-09T00:48:38;23.10;74.70
51383;DHT22;37475;43.358;1.248;2023-07-09T00:51:13;23.00;75.90
51383;DHT22;37475;43.358;1.248;2023-07-09T00:53:43;23.00;75.90
51383;DHT22;37475;43.358;1.248;2023-07-09T00:56:47;23.00;76.30
51383;DHT22;37475;43.358;1.248;2023-07-09T00:59:18;23.00;76.40
51383;DHT22;37475;43.358;1.248;2023-07-09T01:01:46;22.90;75.90
51383;DHT22;37475;43.358;1.248;2023-07-09T01:04:13;23.00;76.10
51383;DHT22;37475;43.358;1.248;2023-07-09T01:06:43;22.90;76.60
51383;DHT22;37475;43.358;1.248;2023-07-09T01:09:10;22.80;76.60
51383;DHT22;37475;43.358;1.248;2023-07-09T01:11:37;22.80;76.80
51383;DHT22;37475;43.358;1.248;2023-07-09T01:14:08;22.60;77.70
51383;DHT22;37475;43.358;1.248;2023-07-09T01:16:39;22.70;76.80
51383;DHT22;37475;43.358;1.248;2023-07-09T01:19:07;22.60;77.50
51383;DHT22;37475;43.358;1.248;2023-07-09T01:21:34;22.60;77.60
51383;DHT22;37475;43.358;1.248;2023-07-09T01:24:14;22.60;78.00
51383;DHT22;37475;43.358;1.248;2023-07-09T01:27:02;22.60;78.00
51383;DHT22;37475;43.358;1.248;2023-07-09T01:29:33;22.40;78.80
51383;DHT22;37475;43.358;1.248;2023-07-09T01:32:00;22.30;79.30
51383;DHT22;37475;43.358;1.248;2023-07-09T01:34:28;22.30;78.80
51383;DHT22;37475;43.358;1.248;2023-07-09T01:36:56;22.30;78.80
51383;DHT22;37475;43.358;1.248;2023-07-09T01:39:22;22.40;78.80
51383;DHT22;37475;43.358;1.248;2023-07-09T01:41:48;22.40;78.70
51383;DHT22;37475;43.358;1.248;2023-07-09T01:44:14;22.40;78.80
51383;DHT22;37475;43.358;1.248;2023-07-09T01:46:40;22.40;78.40
51383;DHT22;37475;43.358;1.248;2023-07-09T01:49:07;22.40;78.60
51383;DHT22;37475;43.358;1.248;2023-07-09T01:51:34;22.30;78.70
51383;DHT22;37475;43.358;1.248;2023-07-09T01:54:02;22.40;78.30
51383;DHT22;37475;43.358;1.248;2023-07-09T01:56:28;22.40;78.50
51383;DHT22;37475;43.358;1.248;2023-07-09T01:58:55;22.30;78.80
51383;DHT22;37475;43.358;1.248;2023-07-09T02:01:27;22.30;78.40
51383;DHT22;37475;43.358;1.248;2023-07-09T02:03:54;22.40;78.40
51383;DHT22;37475;43.358;1.248;2023-07-09T02:06:20;22.40;78.70
51383;DHT22;37475;43.358;1.248;2023-07-09T02:08:46;22.30;79.10
51383;DHT22;37475;43.358;1.248;2023-07-09T02:11:12;22.10;79.50
51383;DHT22;37475;43.358;1.248;2023-07-09T02:13:37;22.20;78.90
51383;DHT22;37475;43.358;1.248;2023-07-09T02:16:03;22.10;79.60
51383;DHT22;37475;43.358;1.248;2023-07-09T02:18:29;22.10;79.40
51383;DHT22;37475;43.358;1.248;2023-07-09T02:20:55;22.10;79.50
51383;DHT22;37475;43.358;1.248;2023-07-09T02:23:26;22.10;79.50
51383;DHT22;37475;43.358;1.248;2023-07-09T02:25:53;22.00;79.60
51383;DHT22;37475;43.358;1.248;2023-07-09T02:28:19;22.00;79.30
51383;DHT22;37475;43.358;1.248;2023-07-09T02:30:44;22.10;79.40
51383;DHT22;37475;43.358;1.248;2023-07-09T02:33:11;22.10;79.30
51383;DHT22;37475;43.358;1.248;2023-07-09T02:35:37;22.00;79.30
51383;DHT22;37475;43.358;1.248;2023-07-09T02:38:03;22.10;79.60
51383;DHT22;37475;43.358;1.248;2023-07-09T02:40:29;22.00;79.60
51383;DHT22;37475;43.358;1.248;2023-07-09T02:42:55;22.10;79.00
51383;DHT22;37475;43.358;1.248;2023-07-09T02:45:21;22.10;79.00
51383;DHT22;37475;43.358;1.248;2023-07-09T02:47:47;22.00;79.10
51383;DHT22;37475;43.358;1.248;2023-07-09T02:50:13;21.90;79.40
51383;DHT22;37475;43.358;1.248;2023-07-09T02:52:39;22.00;79.20
51383;DHT22;37475;43.358;1.248;2023-07-09T02:55:07;21.90;79.90
51383;DHT22;37475;43.358;1.248;2023-07-09T02:57:34;21.90;79.50
51383;DHT22;37475;43.358;1.248;2023-07-09T03:00:00;21.90;79.40
51383;DHT22;37475;43.358;1.248;2023-07-09T03:02:26;22.00;79.10
51383;DHT22;37475;43.358;1.248;2023-07-09T03:04:51;22.00;79.00
51383;DHT22;37475;43.358;1.248;2023-07-09T03:07:17;22.00;78.90
51383;DHT22;37475;43.358;1.248;2023-07-09T03:09:43;22.10;79.10
51383;DHT22;37475;43.358;1.248;2023-07-09T03:12:09;22.10;78.80
51383;DHT22;37475;43.358;1.248;2023-07-09T03:14:36;22.00;79.10
51383;DHT22;37475;43.358;1.248;2023-07-09T03:17:01;22.00;78.80
51383;DHT22;37475;43.358;1.248;2023-07-09T03:19:28;21.90;79.30
51383;DHT22;37475;43.358;1.248;2023-07-09T03:21:53;21.80;79.50
51383;DHT22;37475;43.358;1.248;2023-07-09T03:24:19;21.90;79.40
51383;DHT22;37475;43.358;1.248;2023-07-09T03:26:45;21.90;79.20
51383;DHT22;37475;43.358;1.248;2023-07-09T03:29:12;22.00;79.50
51383;DHT22;37475;43.358;1.248;2023-07-09T03:31:38;22.00;79.50
51383;DHT22;37475;43.358;1.248;2023-07-09T03:34:04;22.00;79.90
51383;DHT22;37475;43.358;1.248;2023-07-09T03:36:30;22.10;79.60
51383;DHT22;37475;43.358;1.248;2023-07-09T03:38:56;22.00;79.60
51383;DHT22;37475;43.358;1.248;2023-07-09T03:41:22;22.10;80.20
51383;DHT22;37475;43.358;1.248;2023-07-09T03:43:47;22.10;79.70
51383;DHT22;37475;43.358;1.248;2023-07-09T03:46:15;22.10;79.80
51383;DHT22;37475;43.358;1.248;2023-07-09T03:48:41;22.10;79.70
51383;DHT22;37475;43.358;1.248;2023-07-09T03:51:07;22.10;79.90
51383;DHT22;37475;43.358;1.248;2023-07-09T03:53:33;22.10;79.70
51383;DHT22;37475;43.358;1.248;2023-07-09T03:55:59;22.10;79.50
51383;DHT22;37475;43.358;1.248;2023-07-09T03:58:26;22.10;79.80
51383;DHT22;37475;43.358;1.248;2023-07-09T04:00:52;22.10;80.00
51383;DHT22;37475;43.358;1.248;2023-07-09T04:03:19;21.90;81.10
51383;DHT22;37475;43.358;1.248;2023-07-09T04:05:46;21.50;81.50
51383;DHT22;37475;43.358;1.248;2023-07-09T04:08:12;21.10;82.90
51383;DHT22;37475;43.358;1.248;2023-07-09T04:10:38;20.80;84.00
51383;DHT22;37475;43.358;1.248;2023-07-09T04:13:04;20.70;84.10
51383;DHT22;37475;43.358;1.248;2023-07-09T04:15:30;20.90;83.70
51383;DHT22;37475;43.358;1.248;2023-07-09T04:17:55;20.90;84.20
51383;DHT22;37475;43.358;1.248;2023-07-09T04:20:22;20.80;85.00
51383;DHT22;37475;43.358;1.248;2023-07-09T04:22:47;20.90;84.70
51383;DHT22;37475;43.358;1.248;2023-07-09T04:25:13;21.00;84.40
51383;DHT22;37475;43.358;1.248;2023-07-09T04:27:39;20.90;85.20
51383;DHT22;37475;43.358;1.248;2023-07-09T04:30:12;20.80;85.50
51383;DHT22;37475;43.358;1.248;2023-07-09T04:32:40;20.80;85.80
51383;DHT22;37475;43.358;1.248;2023-07-09T04:35:09;20.70;86.10
51383;DHT22;37475;43.358;1.248;2023-07-09T04:37:37;20.60;86.20
51383;DHT22;37475;43.358;1.248;2023-07-09T04:40:04;20.60;86.30
51383;DHT22;37475;43.358;1.248;2023-07-09T04:42:32;20.60;86.60
51383;DHT22;37475;43.358;1.248;2023-07-09T04:44:58;20.50;86.40
51383;DHT22;37475;43.358;1.248;2023-07-09T04:47:24;20.50;86.60
51383;DHT22;37475;43.358;1.248;2023-07-09T04:49:50;20.50;87.00
51383;DHT22;37475;43.358;1.248;2023-07-09T04:52:15;20.60;87.10
51383;DHT22;37475;43.358;1.248;2023-07-09T04:54:41;20.60;87.00
51383;DHT22;37475;43.358;1.248;2023-07-09T04:57:11;20.60;87.20
51383;DHT22;37475;43.358;1.248;2023-07-09T04:59:38;20.60;87.60
51383;DHT22;37475;43.358;1.248;2023-07-09T05:02:04;20.60;87.60
51383;DHT22;37475;43.358;1.248;2023-07-09T05:04:31;20.60;87.80
51383;DHT22;37475;43.358;1.248;2023-07-09T05:06:57;20.60;87.60
51383;DHT22;37475;43.358;1.248;2023-07-09T05:09:23;20.60;87.70
51383;DHT22;37475;43.358;1.248;2023-07-09T05:11:49;20.60;87.80
51383;DHT22;37475;43.358;1.248;2023-07-09T05:14:16;20.70;87.90
51383;DHT22;37475;43.358;1.248;2023-07-09T05:16:43;20.70;88.10
51383;DHT22;37475;43.358;1.248;2023-07-09T05:19:10;20.80;87.90
51383;DHT22;37475;43.358;1.248;2023-07-09T05:21:36;20.80;88.00
51383;DHT22;37475;43.358;1.248;2023-07-09T05:24:03;20.80;88.10
51383;DHT22;37475;43.358;1.248;2023-07-09T05:26:29;21.00;88.10
51383;DHT22;37475;43.358;1.248;2023-07-09T05:28:55;21.00;87.90
51383;DHT22;37475;43.358;1.248;2023-07-09T05:31:22;21.10;88.20
51383;DHT22;37475;43.358;1.248;2023-07-09T05:33:48;21.10;88.00
51383;DHT22;37475;43.358;1.248;2023-07-09T05:36:13;21.20;88.30
51383;DHT22;37475;43.358;1.248;2023-07-09T05:38:45;21.30;88.30
51383;DHT22;37475;43.358;1.248;2023-07-09T05:41:15;21.30;88.30
51383;DHT22;37475;43.358;1.248;2023-07-09T05:43:43;21.50;88.30
51383;DHT22;37475;43.358;1.248;2023-07-09T05:46:13;21.50;88.30
51383;DHT22;37475;43.358;1.248;2023-07-09T05:48:39;21.60;88.60
51383;DHT22;37475;43.358;1.248;2023-07-09T05:51:05;21.70;88.30
51383;DHT22;37475;43.358;1.248;2023-07-09T05:53:31;21.80;88.30
51383;DHT22;37475;43.358;1.248;2023-07-09T05:55:58;21.70;88.20
51383;DHT22;37475;43.358;1.248;2023-07-09T05:58:24;21.70;88.70
51383;DHT22;37475;43.358;1.248;2023-07-09T06:00:54;21.80;88.70
51383;DHT22;37475;43.358;1.248;2023-07-09T06:03:24;21.90;88.90
51383;DHT22;37475;43.358;1.248;2023-07-09T06:05:52;22.00;88.90
51383;DHT22;37475;43.358;1.248;2023-07-09T06:08:21;22.10;88.90
51383;DHT22;37475;43.358;1.248;2023-07-09T06:10:57;22.20;89.50
51383;DHT22;37475;43.358;1.248;2023-07-09T06:13:25;22.10;89.70
51383;DHT22;37475;43.358;1.248;2023-07-09T06:15:54;22.20;89.90
51383;DHT22;37475;43.358;1.248;2023-07-09T06:18:21;22.20;89.80
51383;DHT22;37475;43.358;1.248;2023-07-09T06:20:53;22.20;89.80
51383;DHT22;37475;43.358;1.248;2023-07-09T06:23:20;22.10;89.70
51383;DHT22;37475;43.358;1.248;2023-07-09T06:25:46;22.20;90.00
51383;DHT22;37475;43.358;1.248;2023-07-09T06:28:17;22.10;89.50
51383;DHT22;37475;43.358;1.248;2023-07-09T06:30:45;22.20;89.60
51383;DHT22;37475;43.358;1.248;2023-07-09T06:33:13;22.30;89.50
51383;DHT22;37475;43.358;1.248;2023-07-09T06:35:56;22.40;89.70
51383;DHT22;37475;43.358;1.248;2023-07-09T06:38:23;22.50;89.10
51383;DHT22;37475;43.358;1.248;2023-07-09T06:40:50;22.70;88.60
51383;DHT22;37475;43.358;1.248;2023-07-09T06:43:16;22.80;88.20
51383;DHT22;37475;43.358;1.248;2023-07-09T06:45:56;22.90;88.20
51383;DHT22;37475;43.358;1.248;2023-07-09T06:48:24;22.80;87.70
51383;DHT22;37475;43.358;1.248;2023-07-09T06:50:53;22.80;88.40
51383;DHT22;37475;43.358;1.248;2023-07-09T06:53:21;22.70;88.00
51383;DHT22;37475;43.358;1.248;2023-07-09T06:55:47;22.60;88.10
51383;DHT22;37475;43.358;1.248;2023-07-09T06:58:16;22.60;88.60
51383;DHT22;37475;43.358;1.248;2023-07-09T07:00:42;22.60;88.20
51383;DHT22;37475;43.358;1.248;2023-07-09T07:03:09;22.60;88.00
51383;DHT22;37475;43.358;1.248;2023-07-09T07:05:35;22.70;88.30
51383;DHT22;37475;43.358;1.248;2023-07-09T07:08:03;22.60;87.80
51383;DHT22;37475;43.358;1.248;2023-07-09T07:10:29;22.80;88.00
51383;DHT22;37475;43.358;1.248;2023-07-09T07:12:56;22.80;87.50
51383;DHT22;37475;43.358;1.248;2023-07-09T07:15:22;22.80;87.60
51383;DHT22;37475;43.358;1.248;2023-07-09T07:17:48;22.80;86.90
51383;DHT22;37475;43.358;1.248;2023-07-09T07:20:15;23.00;87.40
51383;DHT22;37475;43.358;1.248;2023-07-09T07:22:42;22.90;86.90
51383;DHT22;37475;43.358;1.248;2023-07-09T07:25:08;22.70;87.20
51383;DHT22;37475;43.358;1.248;2023-07-09T07:27:34;22.60;87.70
51383;DHT22;37475;43.358;1.248;2023-07-09T07:30:03;22.60;88.20
51383;DHT22;37475;43.358;1.248;2023-07-09T07:32:29;22.60;87.70
51383;DHT22;37475;43.358;1.248;2023-07-09T07:34:55;22.70;87.50
51383;DHT22;37475;43.358;1.248;2023-07-09T07:37:20;22.60;87.30
51383;DHT22;37475;43.358;1.248;2023-07-09T07:39:47;22.50;87.30
51383;DHT22;37475;43.358;1.248;2023-07-09T07:42:13;22.50;86.90
51383;DHT22;37475;43.358;1.248;2023-07-09T07:44:39;22.50;87.40
51383;DHT22;37475;43.358;1.248;2023-07-09T07:47:06;22.60;86.60
51383;DHT22;37475;43.358;1.248;2023-07-09T07:49:32;22.60;86.80
51383;DHT22;37475;43.358;1.248;2023-07-09T07:51:58;22.60;86.40
51383;DHT22;37475;43.358;1.248;2023-07-09T07:54:24;22.60;86.20
51383;DHT22;37475;43.358;1.248;2023-07-09T07:56:50;22.70;86.30
51383;DHT22;37475;43.358;1.248;2023-07-09T07:59:17;22.90;86.30
51383;DHT22;37475;43.358;1.248;2023-07-09T08:01:43;23.00;85.60
51383;DHT22;37475;43.358;1.248;2023-07-09T08:04:09;22.90;85.20
51383;DHT22;37475;43.358;1.248;2023-07-09T08:06:34;22.80;86.20
51383;DHT22;37475;43.358;1.248;2023-07-09T08:09:01;23.00;85.80
51383;DHT22;37475;43.358;1.248;2023-07-09T08:11:27;23.00;85.70
51383;DHT22;37475;43.358;1.248;2023-07-09T08:13:55;23.00;85.60
51383;DHT22;37475;43.358;1.248;2023-07-09T08:16:21;23.00;85.40
51383;DHT22;37475;43.358;1.248;2023-07-09T08:18:46;22.80;86.00
51383;DHT22;37475;43.358;1.248;2023-07-09T08:21:12;22.80;86.70
51383;DHT22;37475;43.358;1.248;2023-07-09T08:23:39;23.00;85.80
51383;DHT22;37475;43.358;1.248;2023-07-09T08:26:05;23.00;85.70
51383;DHT22;37475;43.358;1.248;2023-07-09T08:28:31;23.00;85.60
51383;DHT22;37475;43.358;1.248;2023-07-09T08:30:57;23.00;85.70
51383;DHT22;37475;43.358;1.248;2023-07-09T08:33:23;23.00;85.60
51383;DHT22;37475;43.358;1.248;2023-07-09T08:35:50;23.00;85.20
51383;DHT22;37475;43.358;1.248;2023-07-09T08:38:17;23.10;84.80
51383;DHT22;37475;43.358;1.248;2023-07-09T08:41:07;23.10;85.10
51383;DHT22;37475;43.358;1.248;2023-07-09T08:50:10;23.20;84.50
51383;DHT22;37475;43.358;1.248;2023-07-09T08:52:41;23.40;84.80
51383;DHT22;37475;43.358;1.248;2023-07-09T08:55:24;23.30;84.30
51383;DHT22;37475;43.358;1.248;2023-07-09T08:58:03;23.30;84.00
51383;DHT22;37475;43.358;1.248;2023-07-09T09:00:47;23.30;84.40
51383;DHT22;37475;43.358;1.248;2023-07-09T09:03:39;23.30;84.50
51383;DHT22;37475;43.358;1.248;2023-07-09T09:06:17;23.40;83.60
51383;DHT22;37475;43.358;1.248;2023-07-09T09:11:51;23.60;82.50
51383;DHT22;37475;43.358;1.248;2023-07-09T09:14:33;23.80;83.40
51383;DHT22;37475;43.358;1.248;2023-07-09T09:17:15;23.80;83.00
51383;DHT22;37475;43.358;1.248;2023-07-09T09:25:23;23.90;82.20
51383;DHT22;37475;43.358;1.248;2023-07-09T09:27:54;24.00;82.60
51383;DHT22;37475;43.358;1.248;2023-07-09T09:30:22;23.70;81.10
51383;DHT22;37475;43.358;1.248;2023-07-09T09:32:58;23.70;81.30
51383;DHT22;37475;43.358;1.248;2023-07-09T09:35:30;23.90;82.30
51383;DHT22;37475;43.358;1.248;2023-07-09T09:37:59;24.00;81.10
51383;DHT22;37475;43.358;1.248;2023-07-09T09:40:27;24.10;80.60
51383;DHT22;37475;43.358;1.248;2023-07-09T09:42:56;24.30;80.30
51383;DHT22;37475;43.358;1.248;2023-07-09T09:45:31;24.10;80.70
51383;DHT22;37475;43.358;1.248;2023-07-09T09:48:00;24.10;81.10
51383;DHT22;37475;43.358;1.248;2023-07-09T09:50:31;24.00;81.30
51383;DHT22;37475;43.358;1.248;2023-07-09T09:52:59;24.10;80.70
51383;DHT22;37475;43.358;1.248;2023-07-09T09:55:31;24.40;80.00
51383;DHT22;37475;43.358;1.248;2023-07-09T09:57:58;24.40;80.90
51383;DHT22;37475;43.358;1.248;2023-07-09T10:00:27;24.60;79.10
51383;DHT22;37475;43.358;1.248;2023-07-09T10:03:03;24.60;79.40
51383;DHT22;37475;43.358;1.248;2023-07-09T10:05:52;24.80;78.90
51383;DHT22;37475;43.358;1.248;2023-07-09T10:08:45;24.70;78.00
51383;DHT22;37475;43.358;1.248;2023-07-09T10:11:28;25.00;78.60
51383;DHT22;37475;43.358;1.248;2023-07-09T10:14:14;25.10;78.30
51383;DHT22;37475;43.358;1.248;2023-07-09T10:16:47;25.20;77.50
51383;DHT22;37475;43.358;1.248;2023-07-09T10:19:25;25.30;77.80
51383;DHT22;37475;43.358;1.248;2023-07-09T10:22:10;25.50;76.20
51383;DHT22;37475;43.358;1.248;2023-07-09T10:30:54;25.30;77.50
51383;DHT22;37475;43.358;1.248;2023-07-09T10:33:48;25.70;76.70
51383;DHT22;37475;43.358;1.248;2023-07-09T10:39:15;26.00;75.50
51383;DHT22;37475;43.358;1.248;2023-07-09T10:41:51;26.10;74.70
51383;DHT22;37475;43.358;1.248;2023-07-09T10:44:42;26.30;73.90
51383;DHT22;37475;43.358;1.248;2023-07-09T10:47:47;26.50;74.50
51383;DHT22;37475;43.358;1.248;2023-07-09T10:50:32;26.80;73.20
51383;DHT22;37475;43.358;1.248;2023-07-09T10:53:28;26.90;72.20
51383;DHT22;37475;43.358;1.248;2023-07-09T10:55:59;26.80;72.30
51383;DHT22;37475;43.358;1.248;2023-07-09T11:01:41;27.10;73.40
51383;DHT22;37475;43.358;1.248;2023-07-09T11:04:36;27.00;72.10
51383;DHT22;37475;43.358;1.248;2023-07-09T11:07:12;27.00;72.20
51383;DHT22;37475;43.358;1.248;2023-07-09T11:09:44;27.30;72.30
51383;DHT22;37475;43.358;1.248;2023-07-09T11:12:16;27.60;70.10
51383;DHT22;37475;43.358;1.248;2023-07-09T11:15:32;27.50;69.80
51383;DHT22;37475;43.358;1.248;2023-07-09T11:17:44;27.50;71.80
51383;DHT22;37475;43.358;1.248;2023-07-09T11:20:42;27.60;71.00
51383;DHT22;37475;43.358;1.248;2023-07-09T11:23:21;27.60;69.90
51383;DHT22;37475;43.358;1.248;2023-07-09T11:26:02;27.90;68.80
51383;DHT22;37475;43.358;1.248;2023-07-09T11:28:38;27.90;69.10
51383;DHT22;37475;43.358;1.248;2023-07-09T11:31:31;27.90;70.20
51383;DHT22;37475;43.358;1.248;2023-07-09T11:34:16;28.30;67.60
51383;DHT22;37475;43.358;1.248;2023-07-09T11:39:45;28.20;68.00
51383;DHT22;37475;43.358;1.248;2023-07-09T11:42:32;28.50;67.20
51383;DHT22;37475;43.358;1.248;2023-07-09T11:45:13;28.20;69.10
51383;DHT22;37475;43.358;1.248;2023-07-09T11:47:45;28.10;68.20
51383;DHT22;37475;43.358;1.248;2023-07-09T11:50:23;28.00;68.30
51383;DHT22;37475;43.358;1.248;2023-07-09T11:53:33;27.90;69.10
51383;DHT22;37475;43.358;1.248;2023-07-09T11:56:02;28.20;67.90
51383;DHT22;37475;43.358;1.248;2023-07-09T11:58:28;28.30;67.90
51383;DHT22;37475;43.358;1.248;2023-07-09T12:00:56;28.30;69.10
51383;DHT22;37475;43.358;1.248;2023-07-09T12:03:28;28.20;67.60
51383;DHT22;37475;43.358;1.248;2023-07-09T12:06:03;28.10;67.60
51383;DHT22;37475;43.358;1.248;2023-07-09T12:08:32;28.60;66.80
51383;DHT22;37475;43.358;1.248;2023-07-09T12:11:00;28.10;67.60
51383;DHT22;37475;43.358;1.248;2023-07-09T12:13:26;28.10;67.60
51383;DHT22;37475;43.358;1.248;2023-07-09T12:15:52;28.50;67.10
51383;DHT22;37475;43.358;1.248;2023-07-09T12:18:18;29.10;65.20
51383;DHT22;37475;43.358;1.248;2023-07-09T12:20:52;29.50;64.20
51383;DHT22;37475;43.358;1.248;2023-07-09T12:23:30;29.30;65.50
51383;DHT22;37475;43.358;1.248;2023-07-09T12:26:03;29.40;64.30
51383;DHT22;37475;43.358;1.248;2023-07-09T12:28:30;29.20;65.10
51383;DHT22;37475;43.358;1.248;2023-07-09T12:30:56;29.70;65.00
51383;DHT22;37475;43.358;1.248;2023-07-09T12:33:24;29.50;63.80
51383;DHT22;37475;43.358;1.248;2023-07-09T12:36:02;29.30;65.40
51383;DHT22;37475;43.358;1.248;2023-07-09T12:38:40;29.00;67.40
51383;DHT22;37475;43.358;1.248;2023-07-09T12:41:24;29.20;65.60
51383;DHT22;37475;43.358;1.248;2023-07-09T12:43:55;29.30;64.30
51383;DHT22;37475;43.358;1.248;2023-07-09T12:46:22;29.80;62.80
51383;DHT22;37475;43.358;1.248;2023-07-09T12:48:49;30.00;61.80
51383;DHT22;37475;43.358;1.248;2023-07-09T12:51:22;30.80;61.00
51383;DHT22;37475;43.358;1.248;2023-07-09T12:54:15;30.90;58.50
51383;DHT22;37475;43.358;1.248;2023-07-09T12:56:44;31.30;59.50
51383;DHT22;37475;43.358;1.248;2023-07-09T13:02:02;31.30;61.10
51383;DHT22;37475;43.358;1.248;2023-07-09T13:04:40;30.50;60.80
51383;DHT22;37475;43.358;1.248;2023-07-09T13:07:29;30.90;59.40
51383;DHT22;37475;43.358;1.248;2023-07-09T13:10:15;30.70;59.60
51383;DHT22;37475;43.358;1.248;2023-07-09T13:12:49;30.70;59.40
51383;DHT22;37475;43.358;1.248;2023-07-09T13:15:42;31.00;59.00
51383;DHT22;37475;43.358;1.248;2023-07-09T13:18:11;30.90;58.40
51383;DHT22;37475;43.358;1.248;2023-07-09T13:20:40;30.70;60.10
51383;DHT22;37475;43.358;1.248;2023-07-09T13:23:14;31.20;59.80
51383;DHT22;37475;43.358;1.248;2023-07-09T13:25:44;30.80;60.20
51383;DHT22;37475;43.358;1.248;2023-07-09T13:28:37;30.80;61.20
51383;DHT22;37475;43.358;1.248;2023-07-09T13:31:13;29.40;63.10
51383;DHT22;37475;43.358;1.248;2023-07-09T13:33:45;29.80;61.90
51383;DHT22;37475;43.358;1.248;2023-07-09T13:36:16;29.70;63.60
51383;DHT22;37475;43.358;1.248;2023-07-09T13:38:41;29.70;63.20
51383;DHT22;37475;43.358;1.248;2023-07-09T13:41:17;29.70;62.50
51383;DHT22;37475;43.358;1.248;2023-07-09T13:43:47;29.70;62.80
51383;DHT22;37475;43.358;1.248;2023-07-09T13:46:14;29.90;63.10
51383;DHT22;37475;43.358;1.248;2023-07-09T13:48:42;30.80;60.50
51383;DHT22;37475;43.358;1.248;2023-07-09T13:51:21;30.80;60.80
51383;DHT22;37475;43.358;1.248;2023-07-09T13:53:53;30.50;61.30
51383;DHT22;37475;43.358;1.248;2023-07-09T13:56:20;30.90;60.70
51383;DHT22;37475;43.358;1.248;2023-07-09T13:58:46;31.00;58.80
51383;DHT22;37475;43.358;1.248;2023-07-09T14:01:15;30.80;60.40
51383;DHT22;37475;43.358;1.248;2023-07-09T14:03:44;31.00;59.50
51383;DHT22;37475;43.358;1.248;2023-07-09T14:06:15;31.40;59.30
51383;DHT22;37475;43.358;1.248;2023-07-09T14:08:42;30.80;60.30
51383;DHT22;37475;43.358;1.248;2023-07-09T14:11:12;30.90;60.70
51383;DHT22;37475;43.358;1.248;2023-07-09T14:13:40;30.00;61.90
51383;DHT22;37475;43.358;1.248;2023-07-09T14:16:08;29.70;61.80
51383;DHT22;37475;43.358;1.248;2023-07-09T14:18:35;29.80;62.00
51383;DHT22;37475;43.358;1.248;2023-07-09T14:21:16;29.60;64.50
51383;DHT22;37475;43.358;1.248;2023-07-09T14:23:44;29.40;63.10
51383;DHT22;37475;43.358;1.248;2023-07-09T14:26:10;29.30;63.80
51383;DHT22;37475;43.358;1.248;2023-07-09T14:28:36;29.40;63.70
51383;DHT22;37475;43.358;1.248;2023-07-09T14:31:08;29.70;63.40
51383;DHT22;37475;43.358;1.248;2023-07-09T14:33:44;29.50;63.60
51383;DHT22;37475;43.358;1.248;2023-07-09T14:36:10;29.30;65.90
51383;DHT22;37475;43.358;1.248;2023-07-09T14:38:36;29.50;65.80
51383;DHT22;37475;43.358;1.248;2023-07-09T14:41:18;29.30;63.50
51383;DHT22;37475;43.358;1.248;2023-07-09T14:43:48;29.30;63.70
51383;DHT22;37475;43.358;1.248;2023-07-09T14:46:15;29.10;65.90
51383;DHT22;37475;43.358;1.248;2023-07-09T14:48:42;29.30;66.50
51383;DHT22;37475;43.358;1.248;2023-07-09T14:51:16;29.80;63.00
51383;DHT22;37475;43.358;1.248;2023-07-09T14:53:44;29.80;62.50
51383;DHT22;37475;43.358;1.248;2023-07-09T14:56:15;29.50;64.90
51383;DHT22;37475;43.358;1.248;2023-07-09T14:58:41;29.50;63.70
51383;DHT22;37475;43.358;1.248;2023-07-09T15:01:16;30.00;62.60
51383;DHT22;37475;43.358;1.248;2023-07-09T15:03:42;30.50;60.90
51383;DHT22;37475;43.358;1.248;2023-07-09T15:06:09;30.30;61.90
51383;DHT22;37475;43.358;1.248;2023-07-09T15:08:35;30.50;62.90
51383;DHT22;37475;43.358;1.248;2023-07-09T15:11:02;30.50;61.90
51383;DHT22;37475;43.358;1.248;2023-07-09T15:13:34;30.90;60.50
51383;DHT22;37475;43.358;1.248;2023-07-09T15:16:02;31.60;59.00
51383;DHT22;37475;43.358;1.248;2023-07-09T15:18:28;31.90;57.50
51383;DHT22;37475;43.358;1.248;2023-07-09T15:20:58;31.40;58.80
51383;DHT22;37475;43.358;1.248;2023-07-09T15:23:27;30.90;59.60
51383;DHT22;37475;43.358;1.248;2023-07-09T15:25:54;30.60;60.60
51383;DHT22;37475;43.358;1.248;2023-07-09T15:28:21;31.30;59.00
51383;DHT22;37475;43.358;1.248;2023-07-09T15:30:47;31.10;57.60
51383;DHT22;37475;43.358;1.248;2023-07-09T15:33:16;30.70;59.50
51383;DHT22;37475;43.358;1.248;2023-07-09T15:35:45;31.30;59.80
51383;DHT22;37475;43.358;1.248;2023-07-09T15:38:31;31.10;59.30
51383;DHT22;37475;43.358;1.248;2023-07-09T15:41:00;30.80;61.70
51383;DHT22;37475;43.358;1.248;2023-07-09T15:43:28;30.80;62.80
51383;DHT22;37475;43.358;1.248;2023-07-09T15:45:56;30.90;59.90
51383;DHT22;37475;43.358;1.248;2023-07-09T15:48:42;31.50;58.90
51383;DHT22;37475;43.358;1.248;2023-07-09T15:51:10;31.50;60.90
51383;DHT22;37475;43.358;1.248;2023-07-09T15:53:37;31.50;60.90
51383;DHT22;37475;43.358;1.248;2023-07-09T15:56:16;31.30;61.10
51383;DHT22;37475;43.358;1.248;2023-07-09T15:58:45;31.30;61.00
51383;DHT22;37475;43.358;1.248;2023-07-09T16:01:13;31.20;59.60
51383;DHT22;37475;43.358;1.248;2023-07-09T16:03:51;31.00;60.00
51383;DHT22;37475;43.358;1.248;2023-07-09T16:06:20;31.10;59.30
51383;DHT22;37475;43.358;1.248;2023-07-09T16:08:46;31.00;60.20
51383;DHT22;37475;43.358;1.248;2023-07-09T16:11:21;30.60;60.80
51383;DHT22;37475;43.358;1.248;2023-07-09T16:13:48;30.50;62.30
51383;DHT22;37475;43.358;1.248;2023-07-09T16:16:20;30.10;62.80
51383;DHT22;37475;43.358;1.248;2023-07-09T16:18:49;30.40;62.90
51383;DHT22;37475;43.358;1.248;2023-07-09T16:21:24;30.10;62.50
51383;DHT22;37475;43.358;1.248;2023-07-09T16:23:50;30.40;62.90
51383;DHT22;37475;43.358;1.248;2023-07-09T16:26:17;30.40;63.20
51383;DHT22;37475;43.358;1.248;2023-07-09T16:28:43;29.90;65.70